createdAt,value
2022-08-22T00:01:07.674Z,28.60
2022-08-22T00:02:55.439Z,28.60
2022-08-22T00:04:11.307Z,28.60
2022-08-22T00:07:04.530Z,28.60
2022-08-22T00:10:25.000Z,28.60
2022-08-22T00:13:01.256Z,28.60
2022-08-22T00:15:43.191Z,28.60
2022-08-22T00:18:31.739Z,28.60
2022-08-22T00:21:04.644Z,28.60
2022-08-22T00:23:39.659Z,28.60
2022-08-22T00:26:27.250Z,28.60
2022-08-22T00:29:04.263Z,28.60
2022-08-22T00:31:37.739Z,28.60
2022-08-22T00:34:08.948Z,28.60
2022-08-22T00:37:03.092Z,28.60
2022-08-22T00:39:37.408Z,28.60
2022-08-22T00:42:32.102Z,28.60
2022-08-22T00:45:43.884Z,28.60
2022-08-22T00:48:34.437Z,28.60
2022-08-22T00:51:14.413Z,28.60
2022-08-22T00:53:46.290Z,28.60
2022-08-22T00:56:46.030Z,28.60
2022-08-22T00:59:49.702Z,28.50
2022-08-22T01:02:35.047Z,28.50
2022-08-22T01:05:39.698Z,28.50
2022-08-22T01:08:22.156Z,28.60
2022-08-22T01:11:06.839Z,28.60
2022-08-22T01:14:11.801Z,28.50
2022-08-22T01:17:02.669Z,28.50
2022-08-22T01:20:03.110Z,28.50
2022-08-22T01:23:02.060Z,28.50
2022-08-22T01:25:49.553Z,28.50
2022-08-22T01:28:29.623Z,28.50
2022-08-22T01:31:26.005Z,28.60
2022-08-22T01:34:12.756Z,28.50
2022-08-22T01:37:10.669Z,28.50
2022-08-22T01:40:00.937Z,28.50
2022-08-22T01:42:34.823Z,28.50
2022-08-22T01:45:07.581Z,28.50
2022-08-22T01:47:50.319Z,28.50
2022-08-22T01:50:22.878Z,28.50
2022-08-22T01:52:52.936Z,28.60
2022-08-22T01:55:25.587Z,28.50
2022-08-22T01:57:58.347Z,28.50
2022-08-22T02:00:34.688Z,28.50
2022-08-22T02:03:14.386Z,28.50
2022-08-22T02:05:53.373Z,28.50
2022-08-22T02:08:37.578Z,28.50
2022-08-22T02:11:13.796Z,28.50
2022-08-22T02:14:15.048Z,28.60
2022-08-22T02:16:43.531Z,28.50
2022-08-22T02:19:10.106Z,28.50
2022-08-22T02:21:43.606Z,28.50
2022-08-22T02:24:47.105Z,28.50
2022-08-22T02:27:31.946Z,28.50
2022-08-22T02:30:09.105Z,28.50
2022-08-22T02:32:41.701Z,28.50
2022-08-22T02:35:22.452Z,28.50
2022-08-22T02:38:13.332Z,28.50
2022-08-22T02:40:44.724Z,28.50
2022-08-22T02:43:27.320Z,28.50
2022-08-22T02:46:05.549Z,28.50
2022-08-22T02:49:15.800Z,28.50
2022-08-22T02:51:53.993Z,28.50
2022-08-22T02:54:43.141Z,28.50
2022-08-22T02:57:14.477Z,28.50
2022-08-22T03:00:05.210Z,28.50
2022-08-22T03:02:36.026Z,28.50
2022-08-22T03:05:46.341Z,28.50
2022-08-22T03:08:32.098Z,28.50
2022-08-22T03:11:05.674Z,28.50
2022-08-22T03:14:03.273Z,28.50
2022-08-22T03:16:55.904Z,28.50
2022-08-22T03:19:24.991Z,28.50
2022-08-22T03:22:02.373Z,28.50
2022-08-22T03:24:38.815Z,28.50
2022-08-22T03:27:12.822Z,28.50
2022-08-22T03:29:48.709Z,28.50
2022-08-22T03:32:20.232Z,28.50
2022-08-22T03:35:00.244Z,28.50
2022-08-22T03:37:35.710Z,28.50
2022-08-22T03:40:20.204Z,28.50
2022-08-22T03:43:10.679Z,28.50
2022-08-22T03:45:44.574Z,28.50
2022-08-22T03:48:35.450Z,28.50
2022-08-22T03:51:16.993Z,28.50
2022-08-22T03:53:58.196Z,28.50
2022-08-22T03:57:00.610Z,28.50
2022-08-22T03:59:59.864Z,28.50
2022-08-22T04:02:45.613Z,28.50
2022-08-22T04:05:39.549Z,28.40
2022-08-22T04:08:13.719Z,28.40
2022-08-22T04:11:02.499Z,28.40
2022-08-22T04:14:00.509Z,28.40
2022-08-22T04:17:15.083Z,28.50
2022-08-22T04:19:49.489Z,28.40
2022-08-22T04:22:38.065Z,28.40
2022-08-22T04:25:12.311Z,28.40
2022-08-22T04:28:14.053Z,28.40
2022-08-22T04:30:47.671Z,28.40
2022-08-22T04:33:30.420Z,28.40
2022-08-22T04:36:26.563Z,28.40
2022-08-22T04:39:09.348Z,28.50
2022-08-22T04:41:46.602Z,28.50
2022-08-22T04:44:23.882Z,28.40
2022-08-22T04:47:02.485Z,28.40
2022-08-22T04:49:54.184Z,28.40
2022-08-22T04:52:24.237Z,28.40
2022-08-22T04:55:32.818Z,28.40
2022-08-22T04:58:33.471Z,28.40
2022-08-22T05:01:18.045Z,28.40
2022-08-22T05:04:08.553Z,28.40
2022-08-22T05:06:38.656Z,28.40
2022-08-22T05:09:10.866Z,28.40
2022-08-22T05:11:40.745Z,28.40
2022-08-22T05:14:37.532Z,28.40
2022-08-22T05:17:05.889Z,28.40
2022-08-22T05:19:34.692Z,28.40
2022-08-22T05:22:01.508Z,28.40
2022-08-22T05:24:33.769Z,28.50
2022-08-22T05:27:03.543Z,28.40
2022-08-22T05:29:30.729Z,28.40
2022-08-22T05:32:07.802Z,28.50
2022-08-22T05:34:41.571Z,28.40
2022-08-22T05:37:20.390Z,28.40
2022-08-22T05:39:49.118Z,28.40
2022-08-22T05:42:27.528Z,28.40
2022-08-22T05:44:55.030Z,28.40
2022-08-22T05:47:43.134Z,28.40
2022-08-22T05:50:16.025Z,28.40
2022-08-22T05:52:59.216Z,28.40
2022-08-22T05:55:39.706Z,28.40
2022-08-22T05:58:38.750Z,28.40
2022-08-22T06:01:28.697Z,28.40
2022-08-22T06:04:16.027Z,28.40
2022-08-22T06:07:08.158Z,28.40
2022-08-22T06:09:54.199Z,28.40
2022-08-22T06:12:33.269Z,28.40
2022-08-22T06:15:03.249Z,28.40
2022-08-22T06:17:42.573Z,28.40
2022-08-22T06:20:09.444Z,28.40
2022-08-22T06:22:38.228Z,28.40
2022-08-22T06:25:14.278Z,28.40
2022-08-22T06:27:40.905Z,28.40
2022-08-22T06:30:08.190Z,28.50
2022-08-22T06:32:58.240Z,28.40
2022-08-22T06:36:07.765Z,28.40
2022-08-22T06:38:50.483Z,28.40
2022-08-22T06:41:17.119Z,28.50
2022-08-22T06:43:43.759Z,28.50
2022-08-22T06:46:11.093Z,28.50
2022-08-22T06:48:37.808Z,28.50
2022-08-22T06:51:06.381Z,28.50
2022-08-22T06:53:35.918Z,28.50
2022-08-22T06:56:03.398Z,28.50
2022-08-22T06:58:36.093Z,28.50
2022-08-22T07:01:11.628Z,28.40
2022-08-22T07:03:41.561Z,28.40
2022-08-22T07:06:13.124Z,28.50
2022-08-22T07:08:39.943Z,28.50
2022-08-22T07:11:11.570Z,28.50
2022-08-22T07:13:39.039Z,28.50
2022-08-22T07:16:07.711Z,28.50
2022-08-22T07:18:34.701Z,28.50
2022-08-22T07:21:04.309Z,28.40
2022-08-22T07:23:45.911Z,28.50
2022-08-22T07:26:29.672Z,28.40
2022-08-22T07:29:01.014Z,28.40
2022-08-22T07:31:39.332Z,28.40
2022-08-22T07:34:23.083Z,28.40
2022-08-22T07:36:56.417Z,28.40
2022-08-22T07:39:30.047Z,28.50
2022-08-22T07:42:15.814Z,28.50
2022-08-22T07:45:07.016Z,28.50
2022-08-22T07:47:41.355Z,28.50
2022-08-22T07:50:08.357Z,28.50
2022-08-22T07:52:41.877Z,28.50
2022-08-22T07:55:14.536Z,28.50
2022-08-22T07:57:43.297Z,28.50
2022-08-22T08:00:15.871Z,28.50
2022-08-22T08:02:53.454Z,28.50
2022-08-22T08:05:21.539Z,28.50
2022-08-22T08:07:48.256Z,28.50
2022-08-22T08:10:18.409Z,28.50
2022-08-22T08:13:01.941Z,28.50
2022-08-22T08:15:29.940Z,28.50
2022-08-22T08:17:59.845Z,28.50
2022-08-22T08:20:26.928Z,28.50
2022-08-22T08:22:54.322Z,28.50
2022-08-22T08:25:23.358Z,28.50
2022-08-22T08:28:08.457Z,28.50
2022-08-22T08:31:07.543Z,28.50
2022-08-22T08:33:35.264Z,28.50
2022-08-22T08:36:23.936Z,28.50
2022-08-22T08:38:58.021Z,28.50
2022-08-22T08:41:45.113Z,28.50
2022-08-22T08:44:17.099Z,28.50
2022-08-22T08:47:07.224Z,28.50
2022-08-22T08:49:55.593Z,28.50
2022-08-22T08:52:26.333Z,28.50
2022-08-22T08:55:21.835Z,28.50
2022-08-22T08:58:10.217Z,28.50
2022-08-22T09:00:43.169Z,28.50
2022-08-22T09:03:40.093Z,28.50
2022-08-22T09:06:44.981Z,28.60
2022-08-22T09:09:41.030Z,28.50
2022-08-22T09:12:34.446Z,28.60
2022-08-22T09:15:22.716Z,28.60
2022-08-22T09:18:06.624Z,28.60
2022-08-22T09:21:07.707Z,28.60
2022-08-22T09:23:54.785Z,28.60
2022-08-22T09:26:35.786Z,28.60
2022-08-22T09:29:29.075Z,28.60
2022-08-22T09:32:14.448Z,28.60
2022-08-22T09:35:08.487Z,28.60
2022-08-22T09:37:59.185Z,28.60
2022-08-22T09:40:34.462Z,28.60
2022-08-22T09:43:06.048Z,28.60
2022-08-22T09:45:35.171Z,28.60
2022-08-22T09:48:28.695Z,28.70
2022-08-22T09:51:33.204Z,28.60
2022-08-22T09:54:31.078Z,28.60
2022-08-22T09:57:10.885Z,28.70
2022-08-22T10:00:05.076Z,28.70
2022-08-22T10:02:44.714Z,28.60
2022-08-22T10:05:41.320Z,28.70
2022-08-22T10:08:41.006Z,28.60
2022-08-22T10:11:33.450Z,28.70
2022-08-22T10:14:09.989Z,28.70
2022-08-22T10:17:02.717Z,28.70
2022-08-22T10:19:38.272Z,28.70
2022-08-22T10:22:14.375Z,28.70
2022-08-22T10:25:03.621Z,28.70
2022-08-22T10:27:40.388Z,28.70
2022-08-22T10:30:13.387Z,28.70
2022-08-22T10:32:49.210Z,28.70
2022-08-22T10:35:35.348Z,28.70
2022-08-22T10:38:10.668Z,28.70
2022-08-22T10:40:44.059Z,28.70
2022-08-22T10:43:28.894Z,28.70
2022-08-22T10:46:12.685Z,28.70
2022-08-22T10:48:52.312Z,28.70
2022-08-22T10:51:20.649Z,28.70
2022-08-22T10:54:31.458Z,28.70
2022-08-22T10:57:09.457Z,28.70
2022-08-22T10:59:54.598Z,28.70
2022-08-22T11:02:53.153Z,28.80
2022-08-22T11:05:40.320Z,28.80
2022-08-22T11:08:21.995Z,28.70
2022-08-22T11:11:00.728Z,28.70
2022-08-22T11:13:43.495Z,28.80
2022-08-22T11:16:21.716Z,28.80
2022-08-22T11:19:03.134Z,28.80
2022-08-22T11:21:56.917Z,28.80
2022-08-22T11:24:34.523Z,28.80
2022-08-22T11:27:08.871Z,28.80
2022-08-22T11:29:58.401Z,28.80
2022-08-22T11:33:00.585Z,28.80
2022-08-22T11:35:41.564Z,28.80
2022-08-22T11:38:38.223Z,28.80
2022-08-22T11:41:24.151Z,28.80
2022-08-22T11:43:57.778Z,28.80
2022-08-22T11:46:42.450Z,28.90
2022-08-22T11:49:33.627Z,28.80
2022-08-22T11:52:27.509Z,28.80
2022-08-22T11:55:16.696Z,28.80
2022-08-22T11:57:52.421Z,28.90
2022-08-22T12:00:54.429Z,28.90
2022-08-22T12:03:33.490Z,28.90
2022-08-22T12:06:39.233Z,28.90
2022-08-22T12:09:19.352Z,28.90
2022-08-22T12:11:55.417Z,28.90
2022-08-22T12:14:43.191Z,28.90
2022-08-22T12:17:55.729Z,28.90
2022-08-22T12:21:03.440Z,28.90
2022-08-22T12:23:49.667Z,28.90
2022-08-22T12:26:28.689Z,28.90
2022-08-22T12:29:33.359Z,28.90
2022-08-22T12:32:28.309Z,28.90
2022-08-22T12:35:29.854Z,29.00
2022-08-22T12:38:28.244Z,29.00
2022-08-22T12:41:11.105Z,29.00
2022-08-22T12:44:12.588Z,29.00
2022-08-22T12:46:54.573Z,29.00
2022-08-22T12:49:52.610Z,29.00
2022-08-22T12:52:27.777Z,29.00
2022-08-22T12:55:16.348Z,29.00
2022-08-22T12:57:46.236Z,29.00
2022-08-22T13:00:50.774Z,29.00
2022-08-22T13:03:25.147Z,29.00
2022-08-22T13:05:56.951Z,29.00
2022-08-22T13:08:38.193Z,29.00
2022-08-22T13:11:10.019Z,29.00
2022-08-22T13:13:59.837Z,29.00
2022-08-22T13:16:39.137Z,29.00
2022-08-22T13:19:22.193Z,29.00
2022-08-22T13:22:00.849Z,29.00
2022-08-22T13:24:38.270Z,29.10
2022-08-22T13:27:09.633Z,29.00
2022-08-22T13:29:53.623Z,29.00
2022-08-22T13:32:27.721Z,29.00
2022-08-22T13:34:55.692Z,29.00
2022-08-22T13:37:44.236Z,29.00
2022-08-22T13:40:15.639Z,29.00
2022-08-22T13:42:47.863Z,29.00
2022-08-22T13:45:24.021Z,29.00
2022-08-22T13:48:03.988Z,29.00
2022-08-22T13:50:53.117Z,29.00
2022-08-22T13:53:28.817Z,29.00
2022-08-22T13:56:01.440Z,29.00
2022-08-22T13:58:48.288Z,29.00
2022-08-22T14:01:25.459Z,29.00
2022-08-22T14:03:57.828Z,29.00
2022-08-22T14:06:41.387Z,29.00
2022-08-22T14:09:32.187Z,29.00
2022-08-22T14:12:14.181Z,28.90
2022-08-22T14:14:46.462Z,28.90
2022-08-22T14:17:23.016Z,29.00
2022-08-22T14:20:06.892Z,28.90
2022-08-22T14:22:37.805Z,28.90
2022-08-22T14:25:07.270Z,28.90
2022-08-22T14:27:36.731Z,28.90
2022-08-22T14:30:13.362Z,28.90
2022-08-22T14:33:32.335Z,28.90
2022-08-22T14:36:02.468Z,28.90
2022-08-22T14:38:31.936Z,28.90
2022-08-22T14:41:14.247Z,29.00
2022-08-22T14:44:00.919Z,28.90
2022-08-22T14:46:44.709Z,29.00
2022-08-22T14:49:28.924Z,29.00
2022-08-22T14:52:19.477Z,29.00
2022-08-22T14:54:46.729Z,29.00
2022-08-22T14:57:20.106Z,29.00
2022-08-22T14:59:51.370Z,29.00
2022-08-22T15:02:31.640Z,29.00
2022-08-22T15:05:01.479Z,29.00
2022-08-22T15:07:31.268Z,29.00
2022-08-22T15:10:01.123Z,29.00
2022-08-22T15:12:32.336Z,29.00
2022-08-22T15:15:00.637Z,29.00
2022-08-22T15:17:44.748Z,29.00
2022-08-22T15:20:22.875Z,29.00
2022-08-22T15:22:54.927Z,29.00
2022-08-22T15:25:33.319Z,29.00
2022-08-22T15:28:05.077Z,29.00
2022-08-22T15:30:44.586Z,29.00
2022-08-22T15:33:24.669Z,29.00
2022-08-22T15:35:52.641Z,29.00
2022-08-22T15:38:37.750Z,29.00
2022-08-22T15:41:31.472Z,29.00
2022-08-22T15:44:33.014Z,29.00
2022-08-22T15:47:11.601Z,29.10
2022-08-22T15:49:59.539Z,29.10
2022-08-22T15:52:30.975Z,29.00
2022-08-22T15:55:06.497Z,29.00
2022-08-22T15:57:40.657Z,29.00
2022-08-22T16:00:30.892Z,29.00
2022-08-22T16:03:11.597Z,29.00
2022-08-22T16:05:55.493Z,29.00
2022-08-22T16:08:49.584Z,29.00
2022-08-22T16:11:33.456Z,29.00
2022-08-22T16:14:22.576Z,28.90
2022-08-22T16:17:01.061Z,28.90
2022-08-22T16:19:28.927Z,29.00
2022-08-22T16:21:55.548Z,28.90
2022-08-22T16:24:22.172Z,28.90
2022-08-22T16:26:48.800Z,28.90
2022-08-22T16:29:41.159Z,28.90
2022-08-22T16:32:09.425Z,28.90
2022-08-22T16:34:36.446Z,28.90
2022-08-22T16:37:03.003Z,28.90
2022-08-22T16:39:36.235Z,28.90
2022-08-22T16:42:23.912Z,28.90
2022-08-22T16:44:58.065Z,28.90
2022-08-22T16:47:33.627Z,28.90
2022-08-22T16:50:15.995Z,28.90
2022-08-22T16:53:00.487Z,28.90
2022-08-22T16:55:29.957Z,28.90
2022-08-22T16:58:15.229Z,28.90
2022-08-22T17:01:06.998Z,28.90
2022-08-22T17:03:37.172Z,28.90
2022-08-22T17:06:36.040Z,28.90
2022-08-22T17:09:41.176Z,28.90
2022-08-22T17:12:40.030Z,28.90
2022-08-22T17:15:54.494Z,28.80
2022-08-22T17:18:35.209Z,28.90
2022-08-22T17:21:11.687Z,28.80
2022-08-22T17:23:51.811Z,28.80
2022-08-22T17:26:38.373Z,28.80
2022-08-22T17:29:30.366Z,28.90
2022-08-22T17:32:32.483Z,28.80
2022-08-22T17:35:13.181Z,28.90
2022-08-22T17:38:10.746Z,28.80
2022-08-22T17:40:55.503Z,28.80
2022-08-22T17:43:38.145Z,28.80
2022-08-22T17:46:38.284Z,28.80
2022-08-22T17:49:34.073Z,28.80
2022-08-22T17:52:29.262Z,28.80
2022-08-22T17:55:00.308Z,28.80
2022-08-22T17:57:48.551Z,28.80
2022-08-22T18:00:16.697Z,28.80
2022-08-22T18:02:55.977Z,28.90
2022-08-22T18:05:31.675Z,28.80
2022-08-22T18:08:10.216Z,28.80
2022-08-22T18:10:41.603Z,28.80
2022-08-22T18:13:37.956Z,28.80
2022-08-22T18:16:13.404Z,28.80
2022-08-22T18:19:06.507Z,28.80
2022-08-22T18:21:37.758Z,28.80
2022-08-22T18:24:33.308Z,28.80
2022-08-22T18:27:34.416Z,28.80
2022-08-22T18:30:15.725Z,28.80
2022-08-22T18:33:19.804Z,28.80
2022-08-22T18:35:54.593Z,28.80
2022-08-22T18:38:31.117Z,28.80
2022-08-22T18:41:07.181Z,28.80
2022-08-22T18:43:38.888Z,28.80
2022-08-22T18:46:32.046Z,28.80
2022-08-22T18:49:15.093Z,28.80
2022-08-22T18:51:42.566Z,28.80
2022-08-22T18:54:10.630Z,28.70
2022-08-22T18:56:47.759Z,28.80
2022-08-22T18:59:28.941Z,28.70
2022-08-22T19:02:10.823Z,28.70
2022-08-22T19:04:55.811Z,28.70
2022-08-22T19:07:47.337Z,28.70
2022-08-22T19:10:34.266Z,28.70
2022-08-22T19:13:37.906Z,28.70
2022-08-22T19:16:25.449Z,28.70
2022-08-22T19:18:57.601Z,28.70
2022-08-22T19:21:56.188Z,28.70
2022-08-22T19:24:25.757Z,28.70
2022-08-22T19:27:07.486Z,28.70
2022-08-22T19:29:34.041Z,28.70
2022-08-22T19:32:01.955Z,28.70
2022-08-22T19:34:32.595Z,28.70
2022-08-22T19:37:32.496Z,28.70
2022-08-22T19:40:10.345Z,28.70
2022-08-22T19:42:39.300Z,28.70
2022-08-22T19:45:26.468Z,28.70
2022-08-22T19:47:58.398Z,28.60
2022-08-22T19:50:31.224Z,28.60
2022-08-22T19:53:07.030Z,28.70
2022-08-22T19:56:01.421Z,28.70
2022-08-22T19:58:46.886Z,28.70
2022-08-22T20:01:43.893Z,28.70
2022-08-22T20:04:20.602Z,28.60
2022-08-22T20:07:15.294Z,28.60
2022-08-22T20:09:57.493Z,28.60
2022-08-22T20:12:29.875Z,28.60
2022-08-22T20:14:56.694Z,28.60
2022-08-22T20:17:26.321Z,28.60
2022-08-22T20:20:17.321Z,28.60
2022-08-22T20:22:54.232Z,28.60
2022-08-22T20:25:42.256Z,28.60
2022-08-22T20:28:30.431Z,28.60
2022-08-22T20:30:59.202Z,28.60
2022-08-22T20:33:29.022Z,28.60
2022-08-22T20:35:59.070Z,28.60
2022-08-22T20:38:42.109Z,28.60
2022-08-22T20:41:39.674Z,28.60
2022-08-22T20:44:21.664Z,28.60
2022-08-22T20:46:53.309Z,28.60
2022-08-22T20:49:28.708Z,28.60
2022-08-22T20:52:08.080Z,28.60
2022-08-22T20:54:40.233Z,28.60
2022-08-22T20:57:19.536Z,28.60
2022-08-22T20:59:54.448Z,28.60
2022-08-22T21:02:30.096Z,28.50
2022-08-22T21:05:07.360Z,28.60
2022-08-22T21:07:35.964Z,28.60
2022-08-22T21:10:24.632Z,28.60
2022-08-22T21:13:05.948Z,28.60
2022-08-22T21:15:34.265Z,28.60
2022-08-22T21:18:01.205Z,28.60
2022-08-22T21:20:31.829Z,28.60
2022-08-22T21:23:03.209Z,28.60
2022-08-22T21:25:30.363Z,28.60
2022-08-22T21:27:57.044Z,28.60
2022-08-22T21:30:25.405Z,28.60
2022-08-22T21:32:55.666Z,28.60
2022-08-22T21:35:32.758Z,28.60
2022-08-22T21:37:59.810Z,28.60
2022-08-22T21:40:31.123Z,28.60
2022-08-22T21:43:03.364Z,28.60
2022-08-22T21:45:36.769Z,28.60
2022-08-22T21:48:03.748Z,28.50
2022-08-22T21:50:37.765Z,28.50
2022-08-22T21:53:11.855Z,28.50
2022-08-22T21:55:44.397Z,28.50
2022-08-22T21:58:12.090Z,28.50
2022-08-22T22:00:53.135Z,28.50
2022-08-22T22:03:21.500Z,28.50
2022-08-22T22:05:49.395Z,28.50
2022-08-22T22:08:16.140Z,28.50
2022-08-22T22:10:43.641Z,28.50
2022-08-22T22:13:10.369Z,28.50
2022-08-22T22:15:40.742Z,28.50
2022-08-22T22:18:07.481Z,28.50
2022-08-22T22:20:34.237Z,28.50
2022-08-22T22:23:00.868Z,28.50
2022-08-22T22:25:39.802Z,28.50
2022-08-22T22:28:17.039Z,28.50
2022-08-22T22:30:43.847Z,28.50
2022-08-22T22:33:10.656Z,28.50
2022-08-22T22:35:38.873Z,28.50
2022-08-22T22:38:05.625Z,28.50
2022-08-22T22:40:32.435Z,28.50
2022-08-22T22:42:59.170Z,28.50
2022-08-22T22:45:25.807Z,28.50
2022-08-22T22:47:52.644Z,28.50
2022-08-22T22:50:19.386Z,28.50
2022-08-22T22:52:46.007Z,28.50
2022-08-22T22:55:12.758Z,28.50
2022-08-22T22:57:59.023Z,28.50
2022-08-22T23:00:30.599Z,28.50
2022-08-22T23:02:59.040Z,28.50
2022-08-22T23:05:25.663Z,28.50
2022-08-22T23:07:52.311Z,28.50
2022-08-22T23:10:22.134Z,28.50
2022-08-22T23:12:48.979Z,28.50
2022-08-22T23:15:15.609Z,28.50
2022-08-22T23:17:42.574Z,28.40
2022-08-22T23:20:09.484Z,28.50
2022-08-22T23:22:36.124Z,28.50
2022-08-22T23:25:02.790Z,28.40
2022-08-22T23:27:30.936Z,28.40
2022-08-22T23:29:57.576Z,28.40
2022-08-22T23:32:24.200Z,28.40
2022-08-22T23:34:51.240Z,28.40
2022-08-22T23:37:19.820Z,28.40
2022-08-22T23:39:46.645Z,28.50
2022-08-22T23:42:13.696Z,28.50
2022-08-22T23:44:40.759Z,28.50
2022-08-22T23:47:07.765Z,28.50
2022-08-22T23:49:34.956Z,28.50
2022-08-22T23:52:01.672Z,28.50
2022-08-22T23:54:28.340Z,28.50
2022-08-22T23:56:57.892Z,28.50
2022-08-22T23:59:30.039Z,28.50
